sensor_id;sensor_type;location;lat;lon;timestamp;pressure;altitude;pressure_sealevel;temperature;humidity
78170;BME280;67412;49.892;14.490;2023-09-08T00:01:31;97819.78;;;15.34;82.97
78170;BME280;67412;49.892;14.490;2023-09-08T00:03:57;97825.13;;;15.28;83.55
78170;BME280;67412;49.892;14.490;2023-09-08T00:06:22;97824.25;;;15.28;83.66
78170;BME280;67412;49.892;14.490;2023-09-08T00:08:47;97821.78;;;15.23;83.51
78170;BME280;67412;49.892;14.490;2023-09-08T00:11:12;97823.56;;;15.21;83.54
78170;BME280;67412;49.892;14.490;2023-09-08T00:13:38;97822.78;;;15.18;83.50
78170;BME280;67412;49.892;14.490;2023-09-08T00:16:04;97818.59;;;15.12;83.69
78170;BME280;67412;49.892;14.490;2023-09-08T00:18:30;97813.22;;;15.21;84.88
78170;BME280;67412;49.892;14.490;2023-09-08T00:20:55;97817.47;;;15.22;84.12
78170;BME280;67412;49.892;14.490;2023-09-08T00:23:20;97815.94;;;15.15;84.61
78170;BME280;67412;49.892;14.490;2023-09-08T00:25:46;97819.56;;;15.08;84.79
78170;BME280;67412;49.892;14.490;2023-09-08T00:28:11;97816.97;;;15.08;85.26
78170;BME280;67412;49.892;14.490;2023-09-08T00:30:36;97809.22;;;15.08;85.03
78170;BME280;67412;49.892;14.490;2023-09-08T00:33:02;97807.44;;;15.10;85.10
78170;BME280;67412;49.892;14.490;2023-09-08T00:35:27;97809.97;;;15.13;85.37
78170;BME280;67412;49.892;14.490;2023-09-08T00:37:52;97812.38;;;15.19;85.73
78170;BME280;67412;49.892;14.490;2023-09-08T00:40:18;97806.31;;;15.20;86.13
78170;BME280;67412;49.892;14.490;2023-09-08T00:42:43;97800.38;;;15.17;85.68
78170;BME280;67412;49.892;14.490;2023-09-08T00:45:09;97799.50;;;15.18;85.44
78170;BME280;67412;49.892;14.490;2023-09-08T00:47:34;97802.13;;;15.16;85.94
78170;BME280;67412;49.892;14.490;2023-09-08T00:50:02;97801.22;;;15.17;86.13
78170;BME280;67412;49.892;14.490;2023-09-08T00:52:28;97802.13;;;15.15;85.80
78170;BME280;67412;49.892;14.490;2023-09-08T00:54:57;97800.47;;;15.12;86.36
78170;BME280;67412;49.892;14.490;2023-09-08T00:57:23;97799.72;;;15.07;86.42
78170;BME280;67412;49.892;14.490;2023-09-08T00:59:49;97803.31;;;15.03;87.30
78170;BME280;67412;49.892;14.490;2023-09-08T01:02:14;97803.34;;;15.00;87.59
78170;BME280;67412;49.892;14.490;2023-09-08T01:04:40;97804.38;;;14.94;87.58
78170;BME280;67412;49.892;14.490;2023-09-08T01:07:07;97803.69;;;14.88;87.79
78170;BME280;67412;49.892;14.490;2023-09-08T01:09:34;97800.41;;;14.80;87.80
78170;BME280;67412;49.892;14.490;2023-09-08T01:11:59;97801.56;;;14.67;86.20
78170;BME280;67412;49.892;14.490;2023-09-08T01:14:27;97796.63;;;14.56;87.59
78170;BME280;67412;49.892;14.490;2023-09-08T01:16:54;97796.91;;;14.44;87.34
78170;BME280;67412;49.892;14.490;2023-09-08T01:19:19;97787.78;;;14.26;87.57
78170;BME280;67412;49.892;14.490;2023-09-08T01:21:57;97793.19;;;14.14;89.35
78170;BME280;67412;49.892;14.490;2023-09-08T01:27:20;97792.50;;;14.06;89.52
78170;BME280;67412;49.892;14.490;2023-09-08T01:29:48;97805.72;;;13.91;88.04
78170;BME280;67412;49.892;14.490;2023-09-08T01:32:14;97801.59;;;13.82;87.15
78170;BME280;67412;49.892;14.490;2023-09-08T01:34:40;97800.91;;;13.74;89.90
78170;BME280;67412;49.892;14.490;2023-09-08T01:37:06;97802.56;;;13.77;91.45
78170;BME280;67412;49.892;14.490;2023-09-08T01:39:32;97795.88;;;13.67;90.30
78170;BME280;67412;49.892;14.490;2023-09-08T01:41:57;97811.50;;;13.61;91.44
78170;BME280;67412;49.892;14.490;2023-09-08T01:44:22;97802.13;;;13.53;93.06
78170;BME280;67412;49.892;14.490;2023-09-08T01:46:48;97804.72;;;13.53;92.29
78170;BME280;67412;49.892;14.490;2023-09-08T01:49:13;97797.06;;;13.49;92.58
78170;BME280;67412;49.892;14.490;2023-09-08T01:51:38;97799.94;;;13.34;91.64
78170;BME280;67412;49.892;14.490;2023-09-08T01:54:04;97798.34;;;13.25;91.86
78170;BME280;67412;49.892;14.490;2023-09-08T01:56:29;97798.56;;;13.13;94.74
78170;BME280;67412;49.892;14.490;2023-09-08T01:58:54;97800.47;;;12.99;94.69
78170;BME280;67412;49.892;14.490;2023-09-08T02:01:20;97798.03;;;12.90;94.18
78170;BME280;67412;49.892;14.490;2023-09-08T02:03:45;97790.28;;;12.93;93.46
78170;BME280;67412;49.892;14.490;2023-09-08T02:06:10;97787.69;;;12.93;93.57
78170;BME280;67412;49.892;14.490;2023-09-08T02:08:36;97787.94;;;12.75;93.54
78170;BME280;67412;49.892;14.490;2023-09-08T02:11:01;97784.63;;;12.70;96.57
78170;BME280;67412;49.892;14.490;2023-09-08T02:13:26;97786.28;;;12.72;96.43
78170;BME280;67412;49.892;14.490;2023-09-08T02:15:51;97794.97;;;12.67;96.70
78170;BME280;67412;49.892;14.490;2023-09-08T02:18:17;97793.44;;;12.53;97.01
78170;BME280;67412;49.892;14.490;2023-09-08T02:20:42;97790.84;;;12.53;98.91
78170;BME280;67412;49.892;14.490;2023-09-08T02:23:07;97789.84;;;12.64;99.05
78170;BME280;67412;49.892;14.490;2023-09-08T02:25:33;97789.84;;;12.65;99.68
78170;BME280;67412;49.892;14.490;2023-09-08T02:27:58;97788.91;;;12.69;98.54
78170;BME280;67412;49.892;14.490;2023-09-08T02:30:23;97782.78;;;12.75;97.49
78170;BME280;67412;49.892;14.490;2023-09-08T02:32:49;97787.09;;;12.76;98.68
78170;BME280;67412;49.892;14.490;2023-09-08T02:35:14;97784.31;;;12.89;98.85
78170;BME280;67412;49.892;14.490;2023-09-08T02:37:39;97790.34;;;12.88;97.79
78170;BME280;67412;49.892;14.490;2023-09-08T02:40:06;97779.53;;;12.65;96.67
78170;BME280;67412;49.892;14.490;2023-09-08T02:42:31;97783.91;;;12.58;95.93
78170;BME280;67412;49.892;14.490;2023-09-08T02:44:57;97778.00;;;12.52;97.84
78170;BME280;67412;49.892;14.490;2023-09-08T02:47:22;97782.38;;;12.47;97.20
78170;BME280;67412;49.892;14.490;2023-09-08T02:49:47;97786.69;;;12.45;96.85
78170;BME280;67412;49.892;14.490;2023-09-08T02:52:13;97778.19;;;12.40;99.18
78170;BME280;67412;49.892;14.490;2023-09-08T02:54:38;97775.66;;;12.37;100.00
78170;BME280;67412;49.892;14.490;2023-09-08T02:57:04;97779.84;;;12.42;100.00
78170;BME280;67412;49.892;14.490;2023-09-08T02:59:29;97781.56;;;12.42;96.37
78170;BME280;67412;49.892;14.490;2023-09-08T03:01:55;97775.56;;;12.41;96.60
78170;BME280;67412;49.892;14.490;2023-09-08T03:04:20;97782.53;;;12.35;98.09
78170;BME280;67412;49.892;14.490;2023-09-08T03:06:45;97779.16;;;12.31;98.54
78170;BME280;67412;49.892;14.490;2023-09-08T03:09:11;97781.66;;;12.36;99.71
78170;BME280;67412;49.892;14.490;2023-09-08T03:11:36;97787.84;;;12.26;96.93
78170;BME280;67412;49.892;14.490;2023-09-08T03:14:02;97782.63;;;12.27;99.87
78170;BME280;67412;49.892;14.490;2023-09-08T03:16:27;97786.13;;;12.25;100.00
78170;BME280;67412;49.892;14.490;2023-09-08T03:18:53;97781.91;;;12.18;100.00
78170;BME280;67412;49.892;14.490;2023-09-08T03:21:18;97779.34;;;12.16;100.00
78170;BME280;67412;49.892;14.490;2023-09-08T03:23:44;97781.13;;;12.14;100.00
78170;BME280;67412;49.892;14.490;2023-09-08T03:26:10;97779.63;;;11.95;99.80
78170;BME280;67412;49.892;14.490;2023-09-08T03:28:37;97768.47;;;11.96;100.00
78170;BME280;67412;49.892;14.490;2023-09-08T03:31:04;97775.19;;;12.06;100.00
78170;BME280;67412;49.892;14.490;2023-09-08T03:33:30;97779.41;;;12.13;100.00
78170;BME280;67412;49.892;14.490;2023-09-08T03:35:55;97764.72;;;12.20;100.00
78170;BME280;67412;49.892;14.490;2023-09-08T03:38:21;97766.47;;;12.16;100.00
78170;BME280;67412;49.892;14.490;2023-09-08T03:40:47;97782.03;;;12.10;100.00
78170;BME280;67412;49.892;14.490;2023-09-08T03:43:12;97775.16;;;12.07;100.00
78170;BME280;67412;49.892;14.490;2023-09-08T03:45:37;97771.88;;;11.99;100.00
78170;BME280;67412;49.892;14.490;2023-09-08T03:48:03;97776.81;;;12.13;100.00
78170;BME280;67412;49.892;14.490;2023-09-08T03:50:29;97769.91;;;12.18;100.00
78170;BME280;67412;49.892;14.490;2023-09-08T03:52:55;97762.47;;;11.94;98.33
78170;BME280;67412;49.892;14.490;2023-09-08T03:55:20;97760.84;;;11.88;97.63
78170;BME280;67412;49.892;14.490;2023-09-08T03:57:45;97772.09;;;11.78;99.24
78170;BME280;67412;49.892;14.490;2023-09-08T04:00:11;97767.81;;;11.80;100.00
78170;BME280;67412;49.892;14.490;2023-09-08T04:02:37;97777.28;;;11.77;100.00
78170;BME280;67412;49.892;14.490;2023-09-08T04:05:03;97775.63;;;11.71;100.00
78170;BME280;67412;49.892;14.490;2023-09-08T04:07:28;97782.34;;;11.83;100.00
78170;BME280;67412;49.892;14.490;2023-09-08T04:09:53;97771.19;;;11.82;100.00
78170;BME280;67412;49.892;14.490;2023-09-08T04:12:19;97767.56;;;11.98;100.00
78170;BME280;67412;49.892;14.490;2023-09-08T04:14:44;97768.25;;;12.11;100.00
78170;BME280;67412;49.892;14.490;2023-09-08T04:17:10;97770.81;;;12.11;100.00
78170;BME280;67412;49.892;14.490;2023-09-08T04:19:35;97775.22;;;12.04;100.00
78170;BME280;67412;49.892;14.490;2023-09-08T04:22:00;97774.28;;;12.10;100.00
78170;BME280;67412;49.892;14.490;2023-09-08T04:24:26;97780.31;;;12.10;100.00
78170;BME280;67412;49.892;14.490;2023-09-08T04:26:51;97784.66;;;12.04;100.00
78170;BME280;67412;49.892;14.490;2023-09-08T04:29:16;97779.50;;;12.07;100.00
78170;BME280;67412;49.892;14.490;2023-09-08T04:31:42;97783.78;;;12.05;100.00
78170;BME280;67412;49.892;14.490;2023-09-08T04:34:07;97784.69;;;12.01;100.00
78170;BME280;67412;49.892;14.490;2023-09-08T04:36:32;97780.41;;;12.01;100.00
78170;BME280;67412;49.892;14.490;2023-09-08T04:38:58;97782.94;;;12.06;100.00
78170;BME280;67412;49.892;14.490;2023-09-08T04:41:23;97788.00;;;12.12;100.00
78170;BME280;67412;49.892;14.490;2023-09-08T04:43:48;97788.78;;;12.16;100.00
78170;BME280;67412;49.892;14.490;2023-09-08T04:46:13;97793.84;;;12.23;100.00
78170;BME280;67412;49.892;14.490;2023-09-08T04:48:39;97786.06;;;12.26;100.00
78170;BME280;67412;49.892;14.490;2023-09-08T04:51:04;97786.94;;;12.27;100.00
78170;BME280;67412;49.892;14.490;2023-09-08T04:53:29;97785.22;;;12.29;100.00
78170;BME280;67412;49.892;14.490;2023-09-08T04:55:55;97787.75;;;12.30;100.00
78170;BME280;67412;49.892;14.490;2023-09-08T04:58:20;97796.25;;;12.37;100.00
78170;BME280;67412;49.892;14.490;2023-09-08T05:00:46;97794.50;;;12.40;100.00
78170;BME280;67412;49.892;14.490;2023-09-08T05:03:11;97796.06;;;12.50;100.00
78170;BME280;67412;49.892;14.490;2023-09-08T05:05:36;97801.13;;;12.56;100.00
78170;BME280;67412;49.892;14.490;2023-09-08T05:08:02;97800.25;;;12.57;100.00
78170;BME280;67412;49.892;14.490;2023-09-08T05:10:27;97804.50;;;12.60;100.00
78170;BME280;67412;49.892;14.490;2023-09-08T05:12:52;97802.66;;;12.70;100.00
78170;BME280;67412;49.892;14.490;2023-09-08T05:15:17;97799.09;;;12.77;100.00
78170;BME280;67412;49.892;14.490;2023-09-08T05:17:46;97798.13;;;12.85;100.00
78170;BME280;67412;49.892;14.490;2023-09-08T05:20:11;97795.44;;;12.93;100.00
78170;BME280;67412;49.892;14.490;2023-09-08T05:22:36;97802.13;;;13.03;100.00
78170;BME280;67412;49.892;14.490;2023-09-08T05:25:02;97799.41;;;13.14;100.00
78170;BME280;67412;49.892;14.490;2023-09-08T05:27:28;97796.63;;;13.24;100.00
78170;BME280;67412;49.892;14.490;2023-09-08T05:29:53;97801.59;;;13.35;100.00
78170;BME280;67412;49.892;14.490;2023-09-08T05:32:18;97804.91;;;13.43;100.00
78170;BME280;67412;49.892;14.490;2023-09-08T05:34:44;97799.53;;;13.55;100.00
78170;BME280;67412;49.892;14.490;2023-09-08T05:37:09;97799.41;;;13.63;100.00
78170;BME280;67412;49.892;14.490;2023-09-08T05:39:34;97801.75;;;13.75;100.00
78170;BME280;67412;49.892;14.490;2023-09-08T05:42:00;97794.66;;;13.86;100.00
78170;BME280;67412;49.892;14.490;2023-09-08T05:44:25;97802.09;;;14.01;100.00
78170;BME280;67412;49.892;14.490;2023-09-08T05:46:50;97801.91;;;14.10;100.00
78170;BME280;67412;49.892;14.490;2023-09-08T05:49:16;97796.47;;;14.24;100.00
78170;BME280;67412;49.892;14.490;2023-09-08T05:51:42;97797.13;;;14.35;100.00
78170;BME280;67412;49.892;14.490;2023-09-08T05:54:08;97796.03;;;14.45;100.00
78170;BME280;67412;49.892;14.490;2023-09-08T05:56:33;97798.44;;;14.52;100.00
78170;BME280;67412;49.892;14.490;2023-09-08T05:58:58;97797.50;;;14.57;100.00
78170;BME280;67412;49.892;14.490;2023-09-08T06:01:25;97805.06;;;14.66;100.00
78170;BME280;67412;49.892;14.490;2023-09-08T06:03:51;97794.56;;;14.72;100.00
78170;BME280;67412;49.892;14.490;2023-09-08T06:06:16;97804.66;;;14.82;100.00
78170;BME280;67412;49.892;14.490;2023-09-08T06:08:41;97799.31;;;14.90;100.00
78170;BME280;67412;49.892;14.490;2023-09-08T06:11:07;97799.69;;;15.10;99.90
78170;BME280;67412;49.892;14.490;2023-09-08T06:13:32;97796.75;;;15.24;100.00
78170;BME280;67412;49.892;14.490;2023-09-08T06:15:58;97791.28;;;15.34;98.73
78170;BME280;67412;49.892;14.490;2023-09-08T06:18:23;97790.22;;;15.43;99.90
78170;BME280;67412;49.892;14.490;2023-09-08T06:20:48;97795.97;;;15.56;98.81
78170;BME280;67412;49.892;14.490;2023-09-08T06:23:14;97805.97;;;15.69;99.18
78170;BME280;67412;49.892;14.490;2023-09-08T06:25:40;97801.31;;;15.82;98.36
78170;BME280;67412;49.892;14.490;2023-09-08T06:28:06;97787.28;;;15.89;98.36
78170;BME280;67412;49.892;14.490;2023-09-08T06:30:31;97798.22;;;15.99;97.26
78170;BME280;67412;49.892;14.490;2023-09-08T06:32:56;97787.41;;;16.15;97.46
78170;BME280;67412;49.892;14.490;2023-09-08T06:35:22;97793.03;;;16.29;97.77
78170;BME280;67412;49.892;14.490;2023-09-08T06:37:47;97794.41;;;16.41;96.34
78170;BME280;67412;49.892;14.490;2023-09-08T06:40:12;97794.00;;;16.55;96.72
78170;BME280;67412;49.892;14.490;2023-09-08T06:42:38;97794.59;;;16.64;94.60
78170;BME280;67412;49.892;14.490;2023-09-08T06:45:03;97791.94;;;16.66;93.72
78170;BME280;67412;49.892;14.490;2023-09-08T06:47:29;97790.09;;;16.69;93.82
78170;BME280;67412;49.892;14.490;2023-09-08T06:49:54;97796.50;;;16.87;92.34
78170;BME280;67412;49.892;14.490;2023-09-08T06:52:20;97790.00;;;17.00;92.54
78170;BME280;67412;49.892;14.490;2023-09-08T06:54:45;97791.88;;;17.21;91.85
78170;BME280;67412;49.892;14.490;2023-09-08T06:57:12;97802.84;;;17.31;91.18
78170;BME280;67412;49.892;14.490;2023-09-08T06:59:37;97791.09;;;17.46;89.00
78170;BME280;67412;49.892;14.490;2023-09-08T07:02:02;97800.13;;;17.60;85.83
78170;BME280;67412;49.892;14.490;2023-09-08T07:04:29;97795.38;;;17.73;85.26
78170;BME280;67412;49.892;14.490;2023-09-08T07:06:54;97792.16;;;17.90;84.17
78170;BME280;67412;49.892;14.490;2023-09-08T07:09:20;97796.91;;;18.02;83.51
78170;BME280;67412;49.892;14.490;2023-09-08T07:11:45;97795.56;;;18.15;82.85
78170;BME280;67412;49.892;14.490;2023-09-08T07:14:12;97791.56;;;18.29;81.41
78170;BME280;67412;49.892;14.490;2023-09-08T07:16:37;97792.78;;;18.43;80.39
78170;BME280;67412;49.892;14.490;2023-09-08T07:19:02;97793.13;;;18.57;78.23
78170;BME280;67412;49.892;14.490;2023-09-08T07:21:28;97801.22;;;18.72;77.54
78170;BME280;67412;49.892;14.490;2023-09-08T07:23:53;97794.63;;;18.86;77.19
78170;BME280;67412;49.892;14.490;2023-09-08T07:26:21;97804.63;;;18.96;76.02
78170;BME280;67412;49.892;14.490;2023-09-08T07:28:46;97792.91;;;19.06;77.04
78170;BME280;67412;49.892;14.490;2023-09-08T07:31:12;97792.59;;;19.14;77.93
78170;BME280;67412;49.892;14.490;2023-09-08T07:33:38;97788.69;;;19.24;76.56
78170;BME280;67412;49.892;14.490;2023-09-08T07:36:04;97777.06;;;19.33;76.19
78170;BME280;67412;49.892;14.490;2023-09-08T07:38:30;97787.66;;;19.50;76.63
78170;BME280;67412;49.892;14.490;2023-09-08T07:40:56;97788.03;;;19.61;75.07
78170;BME280;67412;49.892;14.490;2023-09-08T07:43:21;97776.75;;;19.81;76.02
78170;BME280;67412;49.892;14.490;2023-09-08T07:45:46;97777.22;;;19.90;73.02
78170;BME280;67412;49.892;14.490;2023-09-08T07:48:11;97781.63;;;20.08;73.68
78170;BME280;67412;49.892;14.490;2023-09-08T07:50:37;97776.06;;;20.16;70.87
78170;BME280;67412;49.892;14.490;2023-09-08T07:53:02;97784.94;;;20.12;69.98
78170;BME280;67412;49.892;14.490;2023-09-08T07:55:28;97776.09;;;20.35;68.90
78170;BME280;67412;49.892;14.490;2023-09-08T07:57:54;97772.84;;;20.48;68.09
78170;BME280;67412;49.892;14.490;2023-09-08T08:00:20;97775.41;;;20.50;69.35
78170;BME280;67412;49.892;14.490;2023-09-08T08:02:55;97785.66;;;20.71;69.79
78170;BME280;67412;49.892;14.490;2023-09-08T08:05:21;97786.38;;;20.75;68.16
78170;BME280;67412;49.892;14.490;2023-09-08T08:07:46;97774.81;;;20.81;67.59
78170;BME280;67412;49.892;14.490;2023-09-08T08:10:13;97785.13;;;21.01;65.88
78170;BME280;67412;49.892;14.490;2023-09-08T08:12:39;97787.88;;;21.16;65.21
78170;BME280;67412;49.892;14.490;2023-09-08T08:15:05;97781.81;;;21.33;63.79
78170;BME280;67412;49.892;14.490;2023-09-08T08:17:31;97782.97;;;21.45;62.85
78170;BME280;67412;49.892;14.490;2023-09-08T08:19:57;97779.13;;;21.52;62.89
78170;BME280;67412;49.892;14.490;2023-09-08T08:22:31;97776.56;;;21.67;63.51
78170;BME280;67412;49.892;14.490;2023-09-08T08:24:57;97781.88;;;21.66;63.19
78170;BME280;67412;49.892;14.490;2023-09-08T08:27:22;97777.34;;;21.69;61.16
78170;BME280;67412;49.892;14.490;2023-09-08T08:29:47;97771.72;;;21.77;60.77
78170;BME280;67412;49.892;14.490;2023-09-08T08:32:13;97773.47;;;21.94;61.24
78170;BME280;67412;49.892;14.490;2023-09-08T08:34:38;97773.75;;;22.05;61.15
78170;BME280;67412;49.892;14.490;2023-09-08T08:37:04;97769.38;;;22.05;59.78
78170;BME280;67412;49.892;14.490;2023-09-08T08:39:29;97769.88;;;22.12;59.51
78170;BME280;67412;49.892;14.490;2023-09-08T08:41:54;97765.94;;;22.21;59.00
78170;BME280;67412;49.892;14.490;2023-09-08T08:44:20;97769.91;;;22.28;58.76
78170;BME280;67412;49.892;14.490;2023-09-08T08:46:46;97762.34;;;22.39;60.87
78170;BME280;67412;49.892;14.490;2023-09-08T08:49:12;97764.63;;;22.45;59.02
78170;BME280;67412;49.892;14.490;2023-09-08T08:51:42;97764.88;;;22.56;57.96
78170;BME280;67412;49.892;14.490;2023-09-08T08:54:09;97764.38;;;22.65;60.00
78170;BME280;67412;49.892;14.490;2023-09-08T08:56:35;97766.72;;;22.54;59.33
78170;BME280;67412;49.892;14.490;2023-09-08T08:59:01;97762.59;;;22.65;58.42
78170;BME280;67412;49.892;14.490;2023-09-08T09:01:27;97758.63;;;22.58;57.31
78170;BME280;67412;49.892;14.490;2023-09-08T09:03:54;97763.72;;;22.77;58.79
78170;BME280;67412;49.892;14.490;2023-09-08T09:06:20;97757.22;;;22.84;57.98
78170;BME280;67412;49.892;14.490;2023-09-08T09:08:46;97760.00;;;22.81;58.17
78170;BME280;67412;49.892;14.490;2023-09-08T09:11:12;97754.56;;;23.00;57.22
78170;BME280;67412;49.892;14.490;2023-09-08T09:13:37;97753.38;;;23.05;58.27
78170;BME280;67412;49.892;14.490;2023-09-08T09:16:03;97754.25;;;22.90;56.73
78170;BME280;67412;49.892;14.490;2023-09-08T09:18:32;97749.47;;;23.13;56.57
78170;BME280;67412;49.892;14.490;2023-09-08T09:21:01;97745.38;;;23.23;55.34
78170;BME280;67412;49.892;14.490;2023-09-08T09:23:34;97754.16;;;22.92;55.38
78170;BME280;67412;49.892;14.490;2023-09-08T09:26:01;97745.19;;;23.26;55.22
78170;BME280;67412;49.892;14.490;2023-09-08T09:28:29;97753.75;;;23.59;54.37
78170;BME280;67412;49.892;14.490;2023-09-08T09:30:55;97742.34;;;23.74;53.37
78170;BME280;67412;49.892;14.490;2023-09-08T09:33:21;97745.13;;;23.57;53.54
78170;BME280;67412;49.892;14.490;2023-09-08T09:38:15;97739.56;;;23.91;54.64
78170;BME280;67412;49.892;14.490;2023-09-08T09:40:41;97735.69;;;23.83;53.81
78170;BME280;67412;49.892;14.490;2023-09-08T09:43:08;97735.22;;;23.90;49.78
78170;BME280;67412;49.892;14.490;2023-09-08T09:45:33;97734.47;;;23.74;50.48
78170;BME280;67412;49.892;14.490;2023-09-08T09:47:59;97738.91;;;24.16;49.81
78170;BME280;67412;49.892;14.490;2023-09-08T09:50:32;97734.13;;;24.37;48.15
78170;BME280;67412;49.892;14.490;2023-09-08T09:53:07;97738.56;;;24.63;48.35
78170;BME280;67412;49.892;14.490;2023-09-08T09:55:33;97736.41;;;24.56;46.13
78170;BME280;67412;49.892;14.490;2023-09-08T09:58:02;97748.66;;;24.69;45.74
78170;BME280;67412;49.892;14.490;2023-09-08T10:00:30;97742.47;;;24.84;47.08
78170;BME280;67412;49.892;14.490;2023-09-08T10:02:57;97737.47;;;24.80;46.09
78170;BME280;67412;49.892;14.490;2023-09-08T10:05:23;97743.84;;;24.90;47.84
78170;BME280;67412;49.892;14.490;2023-09-08T10:07:49;97733.47;;;24.74;47.50
78170;BME280;67412;49.892;14.490;2023-09-08T10:10:15;97736.84;;;25.03;47.55
78170;BME280;67412;49.892;14.490;2023-09-08T10:12:44;97727.38;;;25.00;44.95
78170;BME280;67412;49.892;14.490;2023-09-08T10:15:16;97733.44;;;25.15;46.22
78170;BME280;67412;49.892;14.490;2023-09-08T10:17:44;97741.78;;;25.47;46.33
78170;BME280;67412;49.892;14.490;2023-09-08T10:20:10;97734.78;;;25.60;42.17
78170;BME280;67412;49.892;14.490;2023-09-08T10:22:42;97726.91;;;25.60;43.63
78170;BME280;67412;49.892;14.490;2023-09-08T10:25:09;97729.22;;;25.77;45.34
78170;BME280;67412;49.892;14.490;2023-09-08T10:27:35;97730.03;;;25.65;45.03
78170;BME280;67412;49.892;14.490;2023-09-08T10:30:01;97726.34;;;25.55;44.62
78170;BME280;67412;49.892;14.490;2023-09-08T10:32:28;97733.31;;;25.69;42.66
78170;BME280;67412;49.892;14.490;2023-09-08T10:34:54;97720.38;;;25.78;42.98
78170;BME280;67412;49.892;14.490;2023-09-08T10:37:24;97724.56;;;25.93;41.65
78170;BME280;67412;49.892;14.490;2023-09-08T10:39:51;97723.72;;;26.06;41.61
78170;BME280;67412;49.892;14.490;2023-09-08T10:44:43;97716.19;;;26.37;41.23
78170;BME280;67412;49.892;14.490;2023-09-08T10:47:09;97705.03;;;26.47;41.02
78170;BME280;67412;49.892;14.490;2023-09-08T10:49:35;97706.41;;;26.63;39.76
78170;BME280;67412;49.892;14.490;2023-09-08T10:52:10;97704.78;;;26.73;39.56
78170;BME280;67412;49.892;14.490;2023-09-08T10:54:50;97713.78;;;26.71;40.46
78170;BME280;67412;49.892;14.490;2023-09-08T10:57:17;97700.13;;;25.91;40.78
78170;BME280;67412;49.892;14.490;2023-09-08T11:00:03;97709.09;;;26.02;41.48
78170;BME280;67412;49.892;14.490;2023-09-08T11:02:58;97704.22;;;25.95;40.43
78170;BME280;67412;49.892;14.490;2023-09-08T11:05:23;97713.41;;;25.77;40.50
78170;BME280;67412;49.892;14.490;2023-09-08T11:07:49;97700.34;;;25.88;42.95
78170;BME280;67412;49.892;14.490;2023-09-08T11:10:15;97699.84;;;25.71;42.83
78170;BME280;67412;49.892;14.490;2023-09-08T11:12:40;97702.75;;;26.17;42.58
78170;BME280;67412;49.892;14.490;2023-09-08T11:15:07;97706.22;;;26.30;40.40
78170;BME280;67412;49.892;14.490;2023-09-08T11:17:35;97696.16;;;25.86;38.41
78170;BME280;67412;49.892;14.490;2023-09-08T11:20:02;97693.25;;;26.14;39.95
78170;BME280;67412;49.892;14.490;2023-09-08T11:22:37;97692.53;;;26.12;38.98
78170;BME280;67412;49.892;14.490;2023-09-08T11:25:03;97688.53;;;26.07;41.26
78170;BME280;67412;49.892;14.490;2023-09-08T11:27:31;97689.28;;;25.83;38.20
78170;BME280;67412;49.892;14.490;2023-09-08T11:29:57;97681.56;;;26.31;39.97
78170;BME280;67412;49.892;14.490;2023-09-08T11:32:23;97681.75;;;26.64;39.95
78170;BME280;67412;49.892;14.490;2023-09-08T11:34:49;97679.69;;;26.80;40.35
78170;BME280;67412;49.892;14.490;2023-09-08T11:37:17;97675.69;;;26.75;37.76
78170;BME280;67412;49.892;14.490;2023-09-08T11:39:44;97681.41;;;26.92;37.46
78170;BME280;67412;49.892;14.490;2023-09-08T11:42:12;97677.50;;;26.98;37.08
78170;BME280;67412;49.892;14.490;2023-09-08T11:44:37;97680.84;;;27.00;38.27
78170;BME280;67412;49.892;14.490;2023-09-08T11:47:04;97679.25;;;26.86;38.16
78170;BME280;67412;49.892;14.490;2023-09-08T11:49:38;97674.16;;;27.07;36.44
78170;BME280;67412;49.892;14.490;2023-09-08T11:52:04;97672.38;;;27.08;35.26
78170;BME280;67412;49.892;14.490;2023-09-08T11:54:31;97665.66;;;27.15;35.64
78170;BME280;67412;49.892;14.490;2023-09-08T11:57:01;97668.91;;;27.53;36.06
78170;BME280;67412;49.892;14.490;2023-09-08T11:59:28;97669.88;;;27.52;34.53
78170;BME280;67412;49.892;14.490;2023-09-08T12:01:55;97665.94;;;27.23;35.41
78170;BME280;67412;49.892;14.490;2023-09-08T12:04:22;97669.03;;;27.06;35.72
78170;BME280;67412;49.892;14.490;2023-09-08T12:06:48;97668.31;;;27.50;35.72
78170;BME280;67412;49.892;14.490;2023-09-08T12:09:13;97666.28;;;27.64;35.05
78170;BME280;67412;49.892;14.490;2023-09-08T12:11:39;97655.03;;;27.73;34.18
78170;BME280;67412;49.892;14.490;2023-09-08T12:14:08;97655.25;;;27.93;34.71
78170;BME280;67412;49.892;14.490;2023-09-08T12:16:34;97649.75;;;27.96;34.75
78170;BME280;67412;49.892;14.490;2023-09-08T12:19:00;97655.53;;;28.12;35.29
78170;BME280;67412;49.892;14.490;2023-09-08T12:21:25;97655.13;;;28.16;33.67
78170;BME280;67412;49.892;14.490;2023-09-08T12:23:54;97660.31;;;28.18;33.41
78170;BME280;67412;49.892;14.490;2023-09-08T12:26:20;97648.41;;;28.01;35.07
78170;BME280;67412;49.892;14.490;2023-09-08T12:28:47;97640.63;;;27.77;34.19
78170;BME280;67412;49.892;14.490;2023-09-08T12:31:13;97651.56;;;27.38;35.29
78170;BME280;67412;49.892;14.490;2023-09-08T12:33:38;97646.09;;;27.52;35.19
78170;BME280;67412;49.892;14.490;2023-09-08T12:36:15;97643.72;;;27.60;35.18
78170;BME280;67412;49.892;14.490;2023-09-08T12:38:41;97649.25;;;28.02;35.09
78170;BME280;67412;49.892;14.490;2023-09-08T12:41:06;97641.81;;;28.07;35.03
78170;BME280;67412;49.892;14.490;2023-09-08T12:43:31;97647.56;;;27.90;33.95
78170;BME280;67412;49.892;14.490;2023-09-08T12:45:57;97641.31;;;27.91;33.91
78170;BME280;67412;49.892;14.490;2023-09-08T12:48:22;97644.97;;;28.12;35.14
78170;BME280;67412;49.892;14.490;2023-09-08T12:50:48;97637.50;;;28.17;33.17